Airfield :
LOGIN :

Register | Disclaimer

   EN    FR    IT 

 










Legend :    VFR   Marginal VFR   IFR   Intensive IFR   Very Intensive IFR
Visi :
Ceiling :
>= 8 km
>= 3000ft
5 to 8 km
1000 to 3000 ft
1500m to 5 km
500 to 1000 ft
800 to 1500m
200 to 500 ft
< 800m
< 200 ft
Symbols :   Thunderstorms  Fog  Heavy snow  Heavy precipitations  Wind > 20 kt
SIGMETs :     Misc.  Thunderstorms  Icing  Turbulence  Mountain Waves  Volcanic Ashes






- Airport Elevation : 436 ft
- IATA code : ANG


LFBU - Angoulême Brie Champniers

CURRENT METAR :
  • 151330Z AUTO 06007KT 9999 ///TCU 27/15 Q1013 TEMPO -TSRA SCT070CB BKN090TCU

EXPIRED METARs :
  • 151300Z AUTO 07004KT 020V110 9999 ///CB 27/14 Q1013 TEMPO -TSRA
  • 151230Z AUTO 03005KT 340V090 CAVOK 26/14 Q1013 TEMPO -TSRA SCT070CB BKN090TCU
  • 151200Z AUTO 02006KT 340V070 CAVOK 27/15 Q1013 TEMPO -TSRA SCT070CB BKN090TCU
  • 151130Z AUTO 02007KT 350V070 CAVOK 26/16 Q1014 TEMPO -TSRA SCT070CB BKN090TCU
  • 151100Z AUTO 03005KT 340V090 CAVOK 25/16 Q1014 TEMPO -TSRA SCT012 BKN060CB

TAF TAF LFBU
Valid from the 15 at 12:00 until the 16 at 12:00 UTC


151100Z 1512/1612 36005KT CAVOK
PROB30
TEMPO 1512/1515 -TSRA SCT070CB BKN090TCU
TEMPO 1522/1603 VRB15G25KT -SHRA FEW060CB BKN080TCU
PROB40
TEMPO 1522/1603 VRB20G30KT 3000 -TSRA SCT010 BKN050CB
TEMPO 1603/1609 BKN010
BECMG 1609/1611 25010KT SCT030



MET'MAP, your aeronautical weather chart ! - Copyright ORBIFLY December 2007 - Disclaimer

ORBIFLY MET'MAP TEAM :

Programming & Development : Alexandra Zaïnal
Concept & original design : Baudouin d'Aumeries
Assistance for programming : Marc-Olivier Méhu
Technical & hardware support : Manuel Goepfert

Contact : metmap@orbifly.com




SOURCES & CREDITS :

   NOAA